Grand Rapids, Wisconsin
Current Conditions -  °F | °C
As of 7:54 AM on Wednesday 28 Jan 2015 (Local Time) from KISW Reporting Station
Haze Haze  
Wind Chill: 16°   Ceiling: 1000
Heat Index: 25°   Visibility: 6mi
Dew Point: 20°   Wind: 9mph
Humidity: 81%   Direction: 160°SSE
Pressure: 30.16"   Gusts: NA
Location:  44.3431°N, 89.7334°W
Report Text: KISW 281354Z AUTO 16008KT 6SM HZ OVC010 M04/M07 A3016 RMK AO2 SLP230 T10391067
Loading
Personal Weather Stations






























Interactive Weather Map New forecast layout! Learn more

10-Day Weather Forecast

Advertisements
Track Severe Weather on mobile